sensor_id;sensor_type;location;lat;lon;timestamp;temperature;humidity
26541;DHT22;14206;50.202;10.948;2022-11-28T00:01:23;4.80;96.60
26541;DHT22;14206;50.202;10.948;2022-11-28T00:03:50;4.80;96.60
26541;DHT22;14206;50.202;10.948;2022-11-28T00:06:18;4.70;96.60
26541;DHT22;14206;50.202;10.948;2022-11-28T00:08:46;4.70;96.60
26541;DHT22;14206;50.202;10.948;2022-11-28T00:11:14;4.70;96.60
26541;DHT22;14206;50.202;10.948;2022-11-28T00:13:43;4.70;96.60
26541;DHT22;14206;50.202;10.948;2022-11-28T00:16:14;4.70;96.60
26541;DHT22;14206;50.202;10.948;2022-11-28T00:18:42;4.70;96.60
26541;DHT22;14206;50.202;10.948;2022-11-28T00:21:11;4.60;96.60
26541;DHT22;14206;50.202;10.948;2022-11-28T00:23:39;4.60;96.60
26541;DHT22;14206;50.202;10.948;2022-11-28T00:26:19;4.50;96.60
26541;DHT22;14206;50.202;10.948;2022-11-28T00:28:46;4.50;96.60
26541;DHT22;14206;50.202;10.948;2022-11-28T00:31:40;4.50;96.60
26541;DHT22;14206;50.202;10.948;2022-11-28T00:34:12;4.50;96.60
26541;DHT22;14206;50.202;10.948;2022-11-28T00:36:39;4.50;96.60
26541;DHT22;14206;50.202;10.948;2022-11-28T00:39:06;4.50;96.60
26541;DHT22;14206;50.202;10.948;2022-11-28T00:41:33;4.60;96.60
26541;DHT22;14206;50.202;10.948;2022-11-28T00:44:01;4.60;96.60
26541;DHT22;14206;50.202;10.948;2022-11-28T00:46:28;4.60;96.60
26541;DHT22;14206;50.202;10.948;2022-11-28T00:48:56;4.60;96.60
26541;DHT22;14206;50.202;10.948;2022-11-28T00:51:27;4.60;96.60
26541;DHT22;14206;50.202;10.948;2022-11-28T00:53:56;4.60;96.60
26541;DHT22;14206;50.202;10.948;2022-11-28T00:56:26;4.60;96.60
26541;DHT22;14206;50.202;10.948;2022-11-28T00:58:54;4.70;96.60
26541;DHT22;14206;50.202;10.948;2022-11-28T01:01:24;4.70;96.60
26541;DHT22;14206;50.202;10.948;2022-11-28T01:03:53;4.70;96.60
26541;DHT22;14206;50.202;10.948;2022-11-28T01:06:27;4.70;96.60
26541;DHT22;14206;50.202;10.948;2022-11-28T01:08:56;4.70;96.60
26541;DHT22;14206;50.202;10.948;2022-11-28T01:11:23;4.70;96.60
26541;DHT22;14206;50.202;10.948;2022-11-28T01:13:53;4.70;96.60
26541;DHT22;14206;50.202;10.948;2022-11-28T01:16:20;4.70;96.60
26541;DHT22;14206;50.202;10.948;2022-11-28T01:18:47;4.70;96.60
26541;DHT22;14206;50.202;10.948;2022-11-28T01:21:14;4.80;96.60
26541;DHT22;14206;50.202;10.948;2022-11-28T01:23:41;4.80;96.60
26541;DHT22;14206;50.202;10.948;2022-11-28T01:26:10;4.80;96.60
26541;DHT22;14206;50.202;10.948;2022-11-28T01:28:37;4.80;96.60
26541;DHT22;14206;50.202;10.948;2022-11-28T01:31:08;4.80;96.60
26541;DHT22;14206;50.202;10.948;2022-11-28T01:33:36;4.80;96.60
26541;DHT22;14206;50.202;10.948;2022-11-28T01:36:05;4.90;96.60
26541;DHT22;14206;50.202;10.948;2022-11-28T01:38:33;4.80;96.60
26541;DHT22;14206;50.202;10.948;2022-11-28T01:41:00;4.80;96.60
26541;DHT22;14206;50.202;10.948;2022-11-28T01:43:27;4.80;96.60
26541;DHT22;14206;50.202;10.948;2022-11-28T01:45:54;4.80;96.60
26541;DHT22;14206;50.202;10.948;2022-11-28T01:48:37;4.80;96.60
26541;DHT22;14206;50.202;10.948;2022-11-28T01:51:07;4.80;96.60
26541;DHT22;14206;50.202;10.948;2022-11-28T01:53:39;4.70;96.60
26541;DHT22;14206;50.202;10.948;2022-11-28T01:56:19;4.70;96.60
26541;DHT22;14206;50.202;10.948;2022-11-28T01:58:51;4.70;96.60
26541;DHT22;14206;50.202;10.948;2022-11-28T02:01:20;4.70;96.60
26541;DHT22;14206;50.202;10.948;2022-11-28T02:03:51;4.70;96.60
26541;DHT22;14206;50.202;10.948;2022-11-28T02:06:22;4.70;96.60
26541;DHT22;14206;50.202;10.948;2022-11-28T02:08:53;4.70;96.60
26541;DHT22;14206;50.202;10.948;2022-11-28T02:34:09;4.90;96.60
26541;DHT22;14206;50.202;10.948;2022-11-28T02:36:43;4.90;96.60
26541;DHT22;14206;50.202;10.948;2022-11-28T02:42:41;5.00;96.60
26541;DHT22;14206;50.202;10.948;2022-11-28T02:48:23;5.00;96.60
26541;DHT22;14206;50.202;10.948;2022-11-28T02:53:56;4.90;96.60
26541;DHT22;14206;50.202;10.948;2022-11-28T02:56:24;4.90;96.60
26541;DHT22;14206;50.202;10.948;2022-11-28T02:58:51;4.90;96.60
26541;DHT22;14206;50.202;10.948;2022-11-28T03:01:30;4.90;96.60
26541;DHT22;14206;50.202;10.948;2022-11-28T03:04:09;4.90;96.60
26541;DHT22;14206;50.202;10.948;2022-11-28T03:21:39;4.80;96.60
26541;DHT22;14206;50.202;10.948;2022-11-28T03:24:27;4.80;96.60
26541;DHT22;14206;50.202;10.948;2022-11-28T03:27:25;4.80;96.60
26541;DHT22;14206;50.202;10.948;2022-11-28T03:30:00;4.90;96.60
26541;DHT22;14206;50.202;10.948;2022-11-28T03:32:31;4.90;96.60
26541;DHT22;14206;50.202;10.948;2022-11-28T03:35:06;4.90;96.60
26541;DHT22;14206;50.202;10.948;2022-11-28T03:37:43;4.90;96.60
26541;DHT22;14206;50.202;10.948;2022-11-28T03:40:14;4.90;96.60
26541;DHT22;14206;50.202;10.948;2022-11-28T03:42:53;5.00;96.60
26541;DHT22;14206;50.202;10.948;2022-11-28T03:45:25;5.00;96.60
26541;DHT22;14206;50.202;10.948;2022-11-28T03:48:02;5.00;96.60
26541;DHT22;14206;50.202;10.948;2022-11-28T03:50:36;5.00;96.60
26541;DHT22;14206;50.202;10.948;2022-11-28T03:53:19;5.10;96.60
26541;DHT22;14206;50.202;10.948;2022-11-28T03:56:02;5.00;96.60
26541;DHT22;14206;50.202;10.948;2022-11-28T03:58:49;5.00;96.60
26541;DHT22;14206;50.202;10.948;2022-11-28T04:04:34;5.00;96.60
26541;DHT22;14206;50.202;10.948;2022-11-28T04:07:04;5.00;96.60
26541;DHT22;14206;50.202;10.948;2022-11-28T04:09:38;5.00;96.60
26541;DHT22;14206;50.202;10.948;2022-11-28T04:12:16;5.00;96.60
26541;DHT22;14206;50.202;10.948;2022-11-28T04:14:50;5.00;96.60
26541;DHT22;14206;50.202;10.948;2022-11-28T04:20:02;5.00;96.60
26541;DHT22;14206;50.202;10.948;2022-11-28T04:22:36;5.00;96.60
26541;DHT22;14206;50.202;10.948;2022-11-28T04:25:11;5.00;96.60
26541;DHT22;14206;50.202;10.948;2022-11-28T04:27:52;5.00;96.60
26541;DHT22;14206;50.202;10.948;2022-11-28T04:30:20;5.00;96.60
26541;DHT22;14206;50.202;10.948;2022-11-28T04:32:55;4.90;96.60
26541;DHT22;14206;50.202;10.948;2022-11-28T04:35:31;4.90;96.60
26541;DHT22;14206;50.202;10.948;2022-11-28T04:38:00;4.90;96.60
26541;DHT22;14206;50.202;10.948;2022-11-28T04:40:29;4.90;96.60
26541;DHT22;14206;50.202;10.948;2022-11-28T04:43:01;4.90;96.60
26541;DHT22;14206;50.202;10.948;2022-11-28T04:45:35;4.90;96.60
26541;DHT22;14206;50.202;10.948;2022-11-28T04:48:03;4.90;96.60
26541;DHT22;14206;50.202;10.948;2022-11-28T04:50:48;4.90;96.60
26541;DHT22;14206;50.202;10.948;2022-11-28T04:53:31;4.90;96.60
26541;DHT22;14206;50.202;10.948;2022-11-28T04:56:05;4.90;96.60
26541;DHT22;14206;50.202;10.948;2022-11-28T04:58:36;4.80;96.60
26541;DHT22;14206;50.202;10.948;2022-11-28T05:01:10;4.80;96.60
26541;DHT22;14206;50.202;10.948;2022-11-28T05:03:38;4.70;96.60
26541;DHT22;14206;50.202;10.948;2022-11-28T05:06:08;4.70;96.60
26541;DHT22;14206;50.202;10.948;2022-11-28T05:08:35;4.70;96.60
26541;DHT22;14206;50.202;10.948;2022-11-28T05:11:02;4.70;96.60
26541;DHT22;14206;50.202;10.948;2022-11-28T05:13:29;4.60;96.60
26541;DHT22;14206;50.202;10.948;2022-11-28T05:15:59;4.60;96.60
26541;DHT22;14206;50.202;10.948;2022-11-28T05:18:26;4.60;96.60
26541;DHT22;14206;50.202;10.948;2022-11-28T05:20:53;4.60;96.60
26541;DHT22;14206;50.202;10.948;2022-11-28T05:23:20;4.60;96.60
26541;DHT22;14206;50.202;10.948;2022-11-28T05:25:47;4.60;96.60
26541;DHT22;14206;50.202;10.948;2022-11-28T05:28:14;4.60;96.60
26541;DHT22;14206;50.202;10.948;2022-11-28T05:30:41;4.60;96.60
26541;DHT22;14206;50.202;10.948;2022-11-28T05:33:07;4.60;96.60
26541;DHT22;14206;50.202;10.948;2022-11-28T05:35:38;4.60;96.60
26541;DHT22;14206;50.202;10.948;2022-11-28T05:38:05;4.60;96.60
26541;DHT22;14206;50.202;10.948;2022-11-28T05:40:38;4.60;96.60
26541;DHT22;14206;50.202;10.948;2022-11-28T05:43:10;4.60;96.60
26541;DHT22;14206;50.202;10.948;2022-11-28T05:45:41;4.70;96.60
26541;DHT22;14206;50.202;10.948;2022-11-28T05:48:08;4.70;96.60
26541;DHT22;14206;50.202;10.948;2022-11-28T05:50:38;4.70;96.60
26541;DHT22;14206;50.202;10.948;2022-11-28T05:53:05;4.70;96.60
26541;DHT22;14206;50.202;10.948;2022-11-28T05:55:33;4.70;96.60
26541;DHT22;14206;50.202;10.948;2022-11-28T05:57:59;4.60;96.60
26541;DHT22;14206;50.202;10.948;2022-11-28T06:00:26;4.60;96.60
26541;DHT22;14206;50.202;10.948;2022-11-28T06:02:53;4.60;96.60
26541;DHT22;14206;50.202;10.948;2022-11-28T06:05:26;4.50;96.60
26541;DHT22;14206;50.202;10.948;2022-11-28T06:08:10;4.50;96.60
26541;DHT22;14206;50.202;10.948;2022-11-28T06:10:37;4.50;96.60
26541;DHT22;14206;50.202;10.948;2022-11-28T06:13:04;4.50;96.60
26541;DHT22;14206;50.202;10.948;2022-11-28T06:15:32;4.50;96.60
26541;DHT22;14206;50.202;10.948;2022-11-28T06:18:03;4.50;96.60
26541;DHT22;14206;50.202;10.948;2022-11-28T06:20:30;4.50;96.60
26541;DHT22;14206;50.202;10.948;2022-11-28T06:22:57;4.40;96.60
26541;DHT22;14206;50.202;10.948;2022-11-28T06:25:24;4.40;96.60
26541;DHT22;14206;50.202;10.948;2022-11-28T06:27:51;4.40;96.60
26541;DHT22;14206;50.202;10.948;2022-11-28T06:30:18;4.30;96.60
26541;DHT22;14206;50.202;10.948;2022-11-28T06:32:44;4.30;96.60
26541;DHT22;14206;50.202;10.948;2022-11-28T06:35:11;4.30;96.60
26541;DHT22;14206;50.202;10.948;2022-11-28T06:37:38;4.30;96.60
26541;DHT22;14206;50.202;10.948;2022-11-28T06:40:05;4.40;96.60
26541;DHT22;14206;50.202;10.948;2022-11-28T06:42:34;4.40;96.60
26541;DHT22;14206;50.202;10.948;2022-11-28T06:45:03;4.50;96.60
26541;DHT22;14206;50.202;10.948;2022-11-28T06:47:30;4.60;96.60
26541;DHT22;14206;50.202;10.948;2022-11-28T06:49:57;4.60;96.60
26541;DHT22;14206;50.202;10.948;2022-11-28T06:52:24;4.70;96.60
26541;DHT22;14206;50.202;10.948;2022-11-28T06:54:50;4.70;96.60
26541;DHT22;14206;50.202;10.948;2022-11-28T06:57:17;4.70;96.60
26541;DHT22;14206;50.202;10.948;2022-11-28T06:59:44;4.70;96.60
26541;DHT22;14206;50.202;10.948;2022-11-28T07:02:11;4.70;96.60
26541;DHT22;14206;50.202;10.948;2022-11-28T07:04:38;4.70;96.60
26541;DHT22;14206;50.202;10.948;2022-11-28T07:07:05;4.70;96.60
26541;DHT22;14206;50.202;10.948;2022-11-28T07:09:32;4.80;96.60
26541;DHT22;14206;50.202;10.948;2022-11-28T07:11:59;4.80;96.50
26541;DHT22;14206;50.202;10.948;2022-11-28T07:14:25;4.90;96.10
26541;DHT22;14206;50.202;10.948;2022-11-28T07:16:52;4.90;96.30
26541;DHT22;14206;50.202;10.948;2022-11-28T07:19:19;5.00;95.70
26541;DHT22;14206;50.202;10.948;2022-11-28T07:21:49;5.00;95.30
26541;DHT22;14206;50.202;10.948;2022-11-28T07:24:17;5.00;95.20
26541;DHT22;14206;50.202;10.948;2022-11-28T07:26:45;5.00;94.80
26541;DHT22;14206;50.202;10.948;2022-11-28T07:29:16;5.10;94.90
26541;DHT22;14206;50.202;10.948;2022-11-28T07:31:44;5.10;94.70
26541;DHT22;14206;50.202;10.948;2022-11-28T07:34:11;5.20;94.60
26541;DHT22;14206;50.202;10.948;2022-11-28T07:36:37;5.20;94.70
26541;DHT22;14206;50.202;10.948;2022-11-28T07:39:06;5.30;94.40
26541;DHT22;14206;50.202;10.948;2022-11-28T07:41:34;5.30;94.30
26541;DHT22;14206;50.202;10.948;2022-11-28T07:44:03;5.30;94.40
26541;DHT22;14206;50.202;10.948;2022-11-28T07:46:31;5.30;94.30
26541;DHT22;14206;50.202;10.948;2022-11-28T07:48:58;5.30;94.50
26541;DHT22;14206;50.202;10.948;2022-11-28T07:51:28;5.30;94.40
26541;DHT22;14206;50.202;10.948;2022-11-28T07:53:56;5.30;94.70
26541;DHT22;14206;50.202;10.948;2022-11-28T07:56:26;5.40;94.60
26541;DHT22;14206;50.202;10.948;2022-11-28T07:59:13;5.40;95.00
26541;DHT22;14206;50.202;10.948;2022-11-28T08:01:40;5.60;95.00
26541;DHT22;14206;50.202;10.948;2022-11-28T08:04:08;5.60;95.10
26541;DHT22;14206;50.202;10.948;2022-11-28T08:06:39;5.80;94.20
26541;DHT22;14206;50.202;10.948;2022-11-28T08:09:06;5.90;93.30
26541;DHT22;14206;50.202;10.948;2022-11-28T08:11:34;5.90;93.50
26541;DHT22;14206;50.202;10.948;2022-11-28T08:14:02;5.90;93.60
26541;DHT22;14206;50.202;10.948;2022-11-28T08:16:29;6.00;93.50
26541;DHT22;14206;50.202;10.948;2022-11-28T08:18:58;6.00;92.80
26541;DHT22;14206;50.202;10.948;2022-11-28T08:21:30;6.10;92.50
26541;DHT22;14206;50.202;10.948;2022-11-28T08:23:59;6.10;92.90
26541;DHT22;14206;50.202;10.948;2022-11-28T08:26:28;6.10;93.10
26541;DHT22;14206;50.202;10.948;2022-11-28T08:28:57;6.10;93.60
26541;DHT22;14206;50.202;10.948;2022-11-28T08:31:33;6.10;94.40
26541;DHT22;14206;50.202;10.948;2022-11-28T08:34:03;6.20;94.10
26541;DHT22;14206;50.202;10.948;2022-11-28T08:36:30;6.20;93.80
26541;DHT22;14206;50.202;10.948;2022-11-28T08:39:01;6.30;94.00
26541;DHT22;14206;50.202;10.948;2022-11-28T08:41:48;6.40;93.90
26541;DHT22;14206;50.202;10.948;2022-11-28T08:44:15;6.50;94.10
26541;DHT22;14206;50.202;10.948;2022-11-28T08:46:42;6.70;92.90
26541;DHT22;14206;50.202;10.948;2022-11-28T08:49:09;6.70;92.50
26541;DHT22;14206;50.202;10.948;2022-11-28T08:51:36;6.80;92.30
26541;DHT22;14206;50.202;10.948;2022-11-28T08:54:03;6.80;91.70
26541;DHT22;14206;50.202;10.948;2022-11-28T08:56:30;6.80;91.80
26541;DHT22;14206;50.202;10.948;2022-11-28T08:58:57;6.80;91.70
26541;DHT22;14206;50.202;10.948;2022-11-28T09:01:25;6.90;91.00
26541;DHT22;14206;50.202;10.948;2022-11-28T09:03:54;6.90;91.40
26541;DHT22;14206;50.202;10.948;2022-11-28T09:06:22;6.90;90.90
26541;DHT22;14206;50.202;10.948;2022-11-28T09:08:49;6.90;90.30
26541;DHT22;14206;50.202;10.948;2022-11-28T09:11:18;6.90;89.60
26541;DHT22;14206;50.202;10.948;2022-11-28T09:13:45;6.80;90.00
26541;DHT22;14206;50.202;10.948;2022-11-28T09:16:13;6.80;89.70
26541;DHT22;14206;50.202;10.948;2022-11-28T09:18:40;6.70;89.40
26541;DHT22;14206;50.202;10.948;2022-11-28T09:21:09;6.70;89.70
26541;DHT22;14206;50.202;10.948;2022-11-28T09:23:38;6.70;89.50
26541;DHT22;14206;50.202;10.948;2022-11-28T09:26:12;6.70;89.80
26541;DHT22;14206;50.202;10.948;2022-11-28T09:28:39;6.70;90.10
26541;DHT22;14206;50.202;10.948;2022-11-28T09:31:06;6.70;90.50
26541;DHT22;14206;50.202;10.948;2022-11-28T09:33:34;6.70;90.80
26541;DHT22;14206;50.202;10.948;2022-11-28T09:36:26;6.70;89.70
26541;DHT22;14206;50.202;10.948;2022-11-28T09:38:54;6.70;89.50
26541;DHT22;14206;50.202;10.948;2022-11-28T09:46:35;6.60;89.50
26541;DHT22;14206;50.202;10.948;2022-11-28T09:49:21;6.60;89.70
26541;DHT22;14206;50.202;10.948;2022-11-28T09:54:50;6.50;89.60
26541;DHT22;14206;50.202;10.948;2022-11-28T09:57:30;6.60;89.20
26541;DHT22;14206;50.202;10.948;2022-11-28T09:59:58;6.60;89.00
26541;DHT22;14206;50.202;10.948;2022-11-28T10:02:26;6.60;88.80
26541;DHT22;14206;50.202;10.948;2022-11-28T10:11:00;6.80;89.40
26541;DHT22;14206;50.202;10.948;2022-11-28T10:22:43;6.80;89.30
26541;DHT22;14206;50.202;10.948;2022-11-28T10:25:30;6.80;88.20
26541;DHT22;14206;50.202;10.948;2022-11-28T10:28:00;6.80;88.10
26541;DHT22;14206;50.202;10.948;2022-11-28T10:30:31;6.80;88.50
26541;DHT22;14206;50.202;10.948;2022-11-28T10:35:59;6.80;88.10
26541;DHT22;14206;50.202;10.948;2022-11-28T10:38:28;6.80;88.20
26541;DHT22;14206;50.202;10.948;2022-11-28T10:46:35;6.90;87.40
26541;DHT22;14206;50.202;10.948;2022-11-28T10:52:14;6.80;87.80
26541;DHT22;14206;50.202;10.948;2022-11-28T10:57:41;6.90;87.60
26541;DHT22;14206;50.202;10.948;2022-11-28T11:00:11;6.90;87.60
26541;DHT22;14206;50.202;10.948;2022-11-28T11:02:51;6.90;87.50
26541;DHT22;14206;50.202;10.948;2022-11-28T11:05:26;6.90;87.10
26541;DHT22;14206;50.202;10.948;2022-11-28T11:07:59;7.00;87.90
26541;DHT22;14206;50.202;10.948;2022-11-28T11:10:40;7.10;88.20
26541;DHT22;14206;50.202;10.948;2022-11-28T11:13:26;7.20;87.00
26541;DHT22;14206;50.202;10.948;2022-11-28T11:16:08;7.20;86.50
26541;DHT22;14206;50.202;10.948;2022-11-28T11:18:50;7.20;86.30
26541;DHT22;14206;50.202;10.948;2022-11-28T11:21:23;7.30;86.70
26541;DHT22;14206;50.202;10.948;2022-11-28T11:24:10;7.30;86.70
26541;DHT22;14206;50.202;10.948;2022-11-28T11:26:40;7.40;86.00
26541;DHT22;14206;50.202;10.948;2022-11-28T11:29:28;7.40;86.00
26541;DHT22;14206;50.202;10.948;2022-11-28T11:31:56;7.50;86.00
26541;DHT22;14206;50.202;10.948;2022-11-28T11:34:41;7.50;86.70
26541;DHT22;14206;50.202;10.948;2022-11-28T11:37:18;7.70;86.20
26541;DHT22;14206;50.202;10.948;2022-11-28T11:39:50;7.70;85.20
26541;DHT22;14206;50.202;10.948;2022-11-28T11:42:20;7.60;85.20
26541;DHT22;14206;50.202;10.948;2022-11-28T11:44:48;7.70;84.90
26541;DHT22;14206;50.202;10.948;2022-11-28T11:47:15;7.70;85.10
26541;DHT22;14206;50.202;10.948;2022-11-28T11:49:47;7.60;85.00
26541;DHT22;14206;50.202;10.948;2022-11-28T11:52:22;7.60;85.30
26541;DHT22;14206;50.202;10.948;2022-11-28T11:57:36;7.70;85.10
26541;DHT22;14206;50.202;10.948;2022-11-28T12:02:44;7.70;85.00
26541;DHT22;14206;50.202;10.948;2022-11-28T12:08:34;7.60;85.40
26541;DHT22;14206;50.202;10.948;2022-11-28T12:13:59;7.50;85.10
26541;DHT22;14206;50.202;10.948;2022-11-28T12:24:26;7.50;85.50
26541;DHT22;14206;50.202;10.948;2022-11-28T12:27:23;7.50;85.40
26541;DHT22;14206;50.202;10.948;2022-11-28T12:39:20;7.70;84.80
26541;DHT22;14206;50.202;10.948;2022-11-28T12:44:32;7.70;85.70
26541;DHT22;14206;50.202;10.948;2022-11-28T12:47:17;7.70;85.80
26541;DHT22;14206;50.202;10.948;2022-11-28T13:09:36;7.50;86.00
26541;DHT22;14206;50.202;10.948;2022-11-28T13:23:28;7.50;86.90
26541;DHT22;14206;50.202;10.948;2022-11-28T13:26:40;7.50;86.60
26541;DHT22;14206;50.202;10.948;2022-11-28T13:29:47;7.50;86.60
26541;DHT22;14206;50.202;10.948;2022-11-28T13:32:31;7.50;86.50
26541;DHT22;14206;50.202;10.948;2022-11-28T13:35:01;7.60;86.80
26541;DHT22;14206;50.202;10.948;2022-11-28T13:38:06;7.60;86.50
26541;DHT22;14206;50.202;10.948;2022-11-28T13:41:09;7.60;86.80
26541;DHT22;14206;50.202;10.948;2022-11-28T13:44:13;7.70;87.20
26541;DHT22;14206;50.202;10.948;2022-11-28T13:46:43;7.70;87.30
26541;DHT22;14206;50.202;10.948;2022-11-28T13:49:25;7.70;86.90
26541;DHT22;14206;50.202;10.948;2022-11-28T13:52:30;7.70;87.20
26541;DHT22;14206;50.202;10.948;2022-11-28T13:54:57;7.70;87.80
26541;DHT22;14206;50.202;10.948;2022-11-28T13:57:37;7.70;88.00
26541;DHT22;14206;50.202;10.948;2022-11-28T14:00:21;7.80;87.70
26541;DHT22;14206;50.202;10.948;2022-11-28T14:02:52;7.70;87.10
26541;DHT22;14206;50.202;10.948;2022-11-28T14:05:35;7.60;87.20
26541;DHT22;14206;50.202;10.948;2022-11-28T14:08:04;7.60;87.90
26541;DHT22;14206;50.202;10.948;2022-11-28T14:13:38;7.40;88.00
26541;DHT22;14206;50.202;10.948;2022-11-28T14:27:01;7.30;88.50
26541;DHT22;14206;50.202;10.948;2022-11-28T14:29:38;7.30;88.10
26541;DHT22;14206;50.202;10.948;2022-11-28T14:32:38;7.20;88.90
26541;DHT22;14206;50.202;10.948;2022-11-28T14:35:17;7.20;89.40
26541;DHT22;14206;50.202;10.948;2022-11-28T14:41:05;7.20;89.60
26541;DHT22;14206;50.202;10.948;2022-11-28T14:46:23;7.10;89.90
26541;DHT22;14206;50.202;10.948;2022-11-28T14:54:24;7.00;90.50
26541;DHT22;14206;50.202;10.948;2022-11-28T14:56:52;7.00;90.90
26541;DHT22;14206;50.202;10.948;2022-11-28T14:59:33;7.00;90.60
26541;DHT22;14206;50.202;10.948;2022-11-28T15:05:07;6.90;91.20
26541;DHT22;14206;50.202;10.948;2022-11-28T15:07:59;6.90;91.30
26541;DHT22;14206;50.202;10.948;2022-11-28T15:15:56;6.80;91.30
26541;DHT22;14206;50.202;10.948;2022-11-28T15:18:24;6.80;91.40
26541;DHT22;14206;50.202;10.948;2022-11-28T15:20:56;6.70;91.60
26541;DHT22;14206;50.202;10.948;2022-11-28T15:25:57;6.70;92.30
26541;DHT22;14206;50.202;10.948;2022-11-28T15:28:25;6.80;91.80
26541;DHT22;14206;50.202;10.948;2022-11-28T15:30:55;6.70;92.10
26541;DHT22;14206;50.202;10.948;2022-11-28T15:33:24;6.70;92.20
26541;DHT22;14206;50.202;10.948;2022-11-28T15:36:05;6.80;92.30
26541;DHT22;14206;50.202;10.948;2022-11-28T15:38:40;6.80;92.30
26541;DHT22;14206;50.202;10.948;2022-11-28T15:41:08;6.80;92.10
26541;DHT22;14206;50.202;10.948;2022-11-28T15:43:37;6.80;92.20
26541;DHT22;14206;50.202;10.948;2022-11-28T15:46:19;6.90;92.30
26541;DHT22;14206;50.202;10.948;2022-11-28T15:48:49;6.90;92.70
26541;DHT22;14206;50.202;10.948;2022-11-28T15:51:38;7.00;92.50
26541;DHT22;14206;50.202;10.948;2022-11-28T15:54:39;7.00;92.20
26541;DHT22;14206;50.202;10.948;2022-11-28T15:57:22;7.00;92.10
26541;DHT22;14206;50.202;10.948;2022-11-28T15:59:50;6.90;92.10
26541;DHT22;14206;50.202;10.948;2022-11-28T16:02:24;6.90;92.50
26541;DHT22;14206;50.202;10.948;2022-11-28T16:05:01;6.90;92.10
26541;DHT22;14206;50.202;10.948;2022-11-28T16:07:42;6.90;92.10
26541;DHT22;14206;50.202;10.948;2022-11-28T16:10:22;6.90;92.30
26541;DHT22;14206;50.202;10.948;2022-11-28T16:12:54;6.90;91.90
26541;DHT22;14206;50.202;10.948;2022-11-28T16:15:23;6.90;92.40
26541;DHT22;14206;50.202;10.948;2022-11-28T16:17:53;7.00;92.30
26541;DHT22;14206;50.202;10.948;2022-11-28T16:20:34;7.00;92.60
26541;DHT22;14206;50.202;10.948;2022-11-28T16:23:34;7.00;92.30
26541;DHT22;14206;50.202;10.948;2022-11-28T16:28:30;7.00;92.40
26541;DHT22;14206;50.202;10.948;2022-11-28T16:30:58;7.00;92.10
26541;DHT22;14206;50.202;10.948;2022-11-28T16:33:42;7.00;92.40
26541;DHT22;14206;50.202;10.948;2022-11-28T16:41:39;7.10;92.80
26541;DHT22;14206;50.202;10.948;2022-11-28T16:44:13;7.10;92.50
26541;DHT22;14206;50.202;10.948;2022-11-28T16:49:34;7.10;93.10
26541;DHT22;14206;50.202;10.948;2022-11-28T16:54:50;7.00;94.00
26541;DHT22;14206;50.202;10.948;2022-11-28T16:57:18;7.00;93.70
26541;DHT22;14206;50.202;10.948;2022-11-28T16:59:46;7.00;93.80
26541;DHT22;14206;50.202;10.948;2022-11-28T17:02:16;7.00;93.80
26541;DHT22;14206;50.202;10.948;2022-11-28T17:04:45;7.00;93.90
26541;DHT22;14206;50.202;10.948;2022-11-28T17:07:15;6.90;93.90
26541;DHT22;14206;50.202;10.948;2022-11-28T17:09:44;6.90;93.70
26541;DHT22;14206;50.202;10.948;2022-11-28T17:12:31;6.90;93.90
26541;DHT22;14206;50.202;10.948;2022-11-28T17:15:06;6.90;93.90
26541;DHT22;14206;50.202;10.948;2022-11-28T17:17:36;6.90;94.10
26541;DHT22;14206;50.202;10.948;2022-11-28T17:20:03;6.90;94.20
26541;DHT22;14206;50.202;10.948;2022-11-28T17:25:19;6.90;94.10
26541;DHT22;14206;50.202;10.948;2022-11-28T17:27:46;6.80;94.10
26541;DHT22;14206;50.202;10.948;2022-11-28T17:30:16;6.80;94.00
26541;DHT22;14206;50.202;10.948;2022-11-28T17:32:43;6.80;94.30
26541;DHT22;14206;50.202;10.948;2022-11-28T17:35:20;6.80;94.30
26541;DHT22;14206;50.202;10.948;2022-11-28T17:37:47;6.80;94.20
26541;DHT22;14206;50.202;10.948;2022-11-28T17:40:14;6.80;94.40
26541;DHT22;14206;50.202;10.948;2022-11-28T17:43:00;6.80;94.70
26541;DHT22;14206;50.202;10.948;2022-11-28T17:45:29;6.80;94.50
26541;DHT22;14206;50.202;10.948;2022-11-28T17:47:57;6.70;94.70
26541;DHT22;14206;50.202;10.948;2022-11-28T17:50:25;6.60;94.70
26541;DHT22;14206;50.202;10.948;2022-11-28T17:52:52;6.60;94.80
26541;DHT22;14206;50.202;10.948;2022-11-28T17:55:19;6.50;95.20
26541;DHT22;14206;50.202;10.948;2022-11-28T17:57:46;6.50;95.20
26541;DHT22;14206;50.202;10.948;2022-11-28T18:00:14;6.50;95.10
26541;DHT22;14206;50.202;10.948;2022-11-28T18:02:42;6.50;95.20
26541;DHT22;14206;50.202;10.948;2022-11-28T18:05:09;6.60;95.40
26541;DHT22;14206;50.202;10.948;2022-11-28T18:07:38;6.60;95.40
26541;DHT22;14206;50.202;10.948;2022-11-28T18:10:09;6.60;95.40
26541;DHT22;14206;50.202;10.948;2022-11-28T18:12:37;6.50;95.20
26541;DHT22;14206;50.202;10.948;2022-11-28T18:15:06;6.50;95.60
26541;DHT22;14206;50.202;10.948;2022-11-28T18:17:33;6.60;95.90
26541;DHT22;14206;50.202;10.948;2022-11-28T18:20:00;6.60;95.40
26541;DHT22;14206;50.202;10.948;2022-11-28T18:22:27;6.50;95.60
26541;DHT22;14206;50.202;10.948;2022-11-28T18:24:54;6.50;95.90
26541;DHT22;14206;50.202;10.948;2022-11-28T18:27:21;6.50;95.80
26541;DHT22;14206;50.202;10.948;2022-11-28T18:29:48;6.50;95.90
26541;DHT22;14206;50.202;10.948;2022-11-28T18:32:16;6.40;96.10
26541;DHT22;14206;50.202;10.948;2022-11-28T18:34:42;6.40;96.20
26541;DHT22;14206;50.202;10.948;2022-11-28T18:37:10;6.40;96.50
26541;DHT22;14206;50.202;10.948;2022-11-28T18:39:37;6.40;96.60
26541;DHT22;14206;50.202;10.948;2022-11-28T18:42:04;6.40;96.60
26541;DHT22;14206;50.202;10.948;2022-11-28T18:44:31;6.40;96.50
26541;DHT22;14206;50.202;10.948;2022-11-28T18:46:58;6.40;96.60
26541;DHT22;14206;50.202;10.948;2022-11-28T18:49:25;6.40;96.60
26541;DHT22;14206;50.202;10.948;2022-11-28T18:51:55;6.40;96.60
26541;DHT22;14206;50.202;10.948;2022-11-28T18:54:22;6.30;96.60
26541;DHT22;14206;50.202;10.948;2022-11-28T18:56:49;6.30;96.60
26541;DHT22;14206;50.202;10.948;2022-11-28T18:59:16;6.20;96.60
26541;DHT22;14206;50.202;10.948;2022-11-28T19:01:43;6.20;96.60
26541;DHT22;14206;50.202;10.948;2022-11-28T19:04:11;6.20;96.60
26541;DHT22;14206;50.202;10.948;2022-11-28T19:06:39;6.20;96.60
26541;DHT22;14206;50.202;10.948;2022-11-28T19:09:10;6.20;96.60
26541;DHT22;14206;50.202;10.948;2022-11-28T19:11:39;6.30;96.60
26541;DHT22;14206;50.202;10.948;2022-11-28T19:14:06;6.30;96.60
26541;DHT22;14206;50.202;10.948;2022-11-28T19:16:36;6.30;96.60
26541;DHT22;14206;50.202;10.948;2022-11-28T19:19:04;6.30;96.60
26541;DHT22;14206;50.202;10.948;2022-11-28T19:21:33;6.30;96.60
26541;DHT22;14206;50.202;10.948;2022-11-28T19:24:01;6.30;96.60
26541;DHT22;14206;50.202;10.948;2022-11-28T19:26:29;6.30;96.60